sensor_id;sensor_type;location;lat;lon;timestamp;temperature;humidity
25983;DHT22;13773;48.868;10.730;2022-08-21T00:00:30;15.10;99.90
25983;DHT22;13773;48.868;10.730;2022-08-21T00:03:00;15.10;99.90
25983;DHT22;13773;48.868;10.730;2022-08-21T00:05:27;15.10;99.90
25983;DHT22;13773;48.868;10.730;2022-08-21T00:07:54;15.00;99.90
25983;DHT22;13773;48.868;10.730;2022-08-21T00:10:21;15.00;99.90
25983;DHT22;13773;48.868;10.730;2022-08-21T00:12:47;15.00;99.90
25983;DHT22;13773;48.868;10.730;2022-08-21T00:15:17;15.00;99.90
25983;DHT22;13773;48.868;10.730;2022-08-21T00:17:43;14.90;99.90
25983;DHT22;13773;48.868;10.730;2022-08-21T00:20:11;14.90;99.90
25983;DHT22;13773;48.868;10.730;2022-08-21T00:22:37;14.80;99.90
25983;DHT22;13773;48.868;10.730;2022-08-21T00:25:06;14.80;99.90
25983;DHT22;13773;48.868;10.730;2022-08-21T00:27:32;14.80;99.90
25983;DHT22;13773;48.868;10.730;2022-08-21T00:29:58;14.80;99.90
25983;DHT22;13773;48.868;10.730;2022-08-21T00:32:26;14.80;99.90
25983;DHT22;13773;48.868;10.730;2022-08-21T00:34:53;14.80;99.90
25983;DHT22;13773;48.868;10.730;2022-08-21T00:37:19;14.70;99.90
25983;DHT22;13773;48.868;10.730;2022-08-21T00:39:45;14.70;99.90
25983;DHT22;13773;48.868;10.730;2022-08-21T00:42:13;14.70;99.90
25983;DHT22;13773;48.868;10.730;2022-08-21T00:44:44;14.70;99.90
25983;DHT22;13773;48.868;10.730;2022-08-21T00:47:11;14.60;99.90
25983;DHT22;13773;48.868;10.730;2022-08-21T00:49:37;14.60;99.90
25983;DHT22;13773;48.868;10.730;2022-08-21T00:52:07;14.50;99.90
25983;DHT22;13773;48.868;10.730;2022-08-21T00:54:34;14.70;99.90
25983;DHT22;13773;48.868;10.730;2022-08-21T00:57:09;14.70;99.90
25983;DHT22;13773;48.868;10.730;2022-08-21T00:59:37;14.60;99.90
25983;DHT22;13773;48.868;10.730;2022-08-21T01:02:06;14.60;99.90
25983;DHT22;13773;48.868;10.730;2022-08-21T01:04:33;14.60;99.90
25983;DHT22;13773;48.868;10.730;2022-08-21T01:06:59;14.60;99.90
25983;DHT22;13773;48.868;10.730;2022-08-21T01:09:26;14.70;99.90
25983;DHT22;13773;48.868;10.730;2022-08-21T01:11:51;14.60;99.90
25983;DHT22;13773;48.868;10.730;2022-08-21T01:14:18;14.60;99.90
25983;DHT22;13773;48.868;10.730;2022-08-21T01:16:47;14.70;99.90
25983;DHT22;13773;48.868;10.730;2022-08-21T01:19:14;14.60;99.90
25983;DHT22;13773;48.868;10.730;2022-08-21T01:21:42;14.60;99.90
25983;DHT22;13773;48.868;10.730;2022-08-21T01:24:09;14.70;99.90
25983;DHT22;13773;48.868;10.730;2022-08-21T01:26:36;14.70;99.90
25983;DHT22;13773;48.868;10.730;2022-08-21T01:31:56;14.50;99.90
25983;DHT22;13773;48.868;10.730;2022-08-21T01:34:21;14.40;99.90
25983;DHT22;13773;48.868;10.730;2022-08-21T01:36:48;14.40;99.90
25983;DHT22;13773;48.868;10.730;2022-08-21T01:39:14;14.40;99.90
25983;DHT22;13773;48.868;10.730;2022-08-21T01:41:40;14.30;99.90
25983;DHT22;13773;48.868;10.730;2022-08-21T01:44:06;14.30;99.90
25983;DHT22;13773;48.868;10.730;2022-08-21T01:46:32;14.20;99.90
25983;DHT22;13773;48.868;10.730;2022-08-21T01:48:57;14.10;99.90
25983;DHT22;13773;48.868;10.730;2022-08-21T01:51:23;14.10;99.90
25983;DHT22;13773;48.868;10.730;2022-08-21T01:53:49;14.10;99.90
25983;DHT22;13773;48.868;10.730;2022-08-21T01:56:16;14.10;99.90
25983;DHT22;13773;48.868;10.730;2022-08-21T01:58:44;14.10;99.90
25983;DHT22;13773;48.868;10.730;2022-08-21T02:01:10;14.00;99.90
25983;DHT22;13773;48.868;10.730;2022-08-21T02:03:37;14.00;99.90
25983;DHT22;13773;48.868;10.730;2022-08-21T02:06:07;14.00;99.90
25983;DHT22;13773;48.868;10.730;2022-08-21T02:08:33;14.00;99.90
25983;DHT22;13773;48.868;10.730;2022-08-21T02:10:59;13.90;99.90
25983;DHT22;13773;48.868;10.730;2022-08-21T02:13:25;13.80;99.90
25983;DHT22;13773;48.868;10.730;2022-08-21T02:15:51;13.70;99.90
25983;DHT22;13773;48.868;10.730;2022-08-21T02:18:17;13.60;99.90
25983;DHT22;13773;48.868;10.730;2022-08-21T02:20:46;13.50;99.90
25983;DHT22;13773;48.868;10.730;2022-08-21T02:23:13;13.50;99.90
25983;DHT22;13773;48.868;10.730;2022-08-21T02:25:38;13.50;99.90
25983;DHT22;13773;48.868;10.730;2022-08-21T02:28:07;13.60;99.90
25983;DHT22;13773;48.868;10.730;2022-08-21T02:30:36;13.70;99.90
25983;DHT22;13773;48.868;10.730;2022-08-21T02:33:04;13.60;99.90
25983;DHT22;13773;48.868;10.730;2022-08-21T02:35:30;13.60;99.90
25983;DHT22;13773;48.868;10.730;2022-08-21T02:37:59;13.50;99.90
25983;DHT22;13773;48.868;10.730;2022-08-21T02:40:31;13.50;99.90
25983;DHT22;13773;48.868;10.730;2022-08-21T02:42:58;13.60;99.90
25983;DHT22;13773;48.868;10.730;2022-08-21T02:45:25;13.50;99.90
25983;DHT22;13773;48.868;10.730;2022-08-21T02:47:53;13.50;99.90
25983;DHT22;13773;48.868;10.730;2022-08-21T02:50:22;13.50;99.90
25983;DHT22;13773;48.868;10.730;2022-08-21T02:52:48;13.60;99.90
25983;DHT22;13773;48.868;10.730;2022-08-21T02:55:14;13.70;99.90
25983;DHT22;13773;48.868;10.730;2022-08-21T02:57:40;13.60;99.90
25983;DHT22;13773;48.868;10.730;2022-08-21T03:00:08;13.60;99.90
25983;DHT22;13773;48.868;10.730;2022-08-21T03:02:35;13.50;99.90
25983;DHT22;13773;48.868;10.730;2022-08-21T03:05:00;13.60;99.90
25983;DHT22;13773;48.868;10.730;2022-08-21T03:07:26;13.60;99.90
25983;DHT22;13773;48.868;10.730;2022-08-21T03:09:52;13.50;99.90
25983;DHT22;13773;48.868;10.730;2022-08-21T03:12:18;13.60;99.90
25983;DHT22;13773;48.868;10.730;2022-08-21T03:14:43;13.60;99.90
25983;DHT22;13773;48.868;10.730;2022-08-21T03:17:09;13.50;99.90
25983;DHT22;13773;48.868;10.730;2022-08-21T03:19:35;13.60;99.90
25983;DHT22;13773;48.868;10.730;2022-08-21T03:22:00;13.50;99.90
25983;DHT22;13773;48.868;10.730;2022-08-21T03:24:26;13.50;99.90
25983;DHT22;13773;48.868;10.730;2022-08-21T03:26:53;13.40;99.90
25983;DHT22;13773;48.868;10.730;2022-08-21T03:29:19;13.40;99.90
25983;DHT22;13773;48.868;10.730;2022-08-21T03:31:44;13.30;99.90
25983;DHT22;13773;48.868;10.730;2022-08-21T03:34:10;13.30;99.90
25983;DHT22;13773;48.868;10.730;2022-08-21T03:36:36;13.10;99.90
25983;DHT22;13773;48.868;10.730;2022-08-21T03:39:02;13.20;99.90
25983;DHT22;13773;48.868;10.730;2022-08-21T03:41:28;13.20;99.90
25983;DHT22;13773;48.868;10.730;2022-08-21T03:43:54;13.00;99.90
25983;DHT22;13773;48.868;10.730;2022-08-21T03:46:20;13.10;99.90
25983;DHT22;13773;48.868;10.730;2022-08-21T03:48:46;13.20;99.90
25983;DHT22;13773;48.868;10.730;2022-08-21T03:51:11;13.10;99.90
25983;DHT22;13773;48.868;10.730;2022-08-21T03:53:38;13.10;99.90
25983;DHT22;13773;48.868;10.730;2022-08-21T03:56:04;13.10;99.90
25983;DHT22;13773;48.868;10.730;2022-08-21T03:58:31;13.00;99.90
25983;DHT22;13773;48.868;10.730;2022-08-21T04:00:59;13.00;99.90
25983;DHT22;13773;48.868;10.730;2022-08-21T04:03:26;13.00;99.90
25983;DHT22;13773;48.868;10.730;2022-08-21T04:05:52;13.10;99.90
25983;DHT22;13773;48.868;10.730;2022-08-21T04:08:18;13.10;99.90
25983;DHT22;13773;48.868;10.730;2022-08-21T04:10:47;13.10;99.90
25983;DHT22;13773;48.868;10.730;2022-08-21T04:13:14;13.20;99.90
25983;DHT22;13773;48.868;10.730;2022-08-21T04:15:40;13.10;99.90
25983;DHT22;13773;48.868;10.730;2022-08-21T04:18:06;13.10;99.90
25983;DHT22;13773;48.868;10.730;2022-08-21T04:20:32;13.00;99.90
25983;DHT22;13773;48.868;10.730;2022-08-21T04:22:58;12.90;99.90
25983;DHT22;13773;48.868;10.730;2022-08-21T04:25:24;13.00;99.90
25983;DHT22;13773;48.868;10.730;2022-08-21T04:27:53;12.90;99.90
25983;DHT22;13773;48.868;10.730;2022-08-21T04:30:19;12.90;99.90
25983;DHT22;13773;48.868;10.730;2022-08-21T04:32:47;12.80;99.90
25983;DHT22;13773;48.868;10.730;2022-08-21T04:35:16;12.80;99.90
25983;DHT22;13773;48.868;10.730;2022-08-21T04:37:42;12.70;99.90
25983;DHT22;13773;48.868;10.730;2022-08-21T04:40:10;12.70;99.90
25983;DHT22;13773;48.868;10.730;2022-08-21T04:42:43;12.60;99.90
25983;DHT22;13773;48.868;10.730;2022-08-21T04:47:45;12.60;99.90
25983;DHT22;13773;48.868;10.730;2022-08-21T04:50:11;12.60;99.90
25983;DHT22;13773;48.868;10.730;2022-08-21T04:52:36;12.50;99.90
25983;DHT22;13773;48.868;10.730;2022-08-21T04:55:03;12.50;99.90
25983;DHT22;13773;48.868;10.730;2022-08-21T04:57:29;12.50;99.90
25983;DHT22;13773;48.868;10.730;2022-08-21T04:59:54;12.50;99.90
25983;DHT22;13773;48.868;10.730;2022-08-21T05:02:20;12.50;99.90
25983;DHT22;13773;48.868;10.730;2022-08-21T05:04:52;12.60;99.90
25983;DHT22;13773;48.868;10.730;2022-08-21T05:07:23;12.70;99.90
25983;DHT22;13773;48.868;10.730;2022-08-21T05:09:51;12.70;99.90
25983;DHT22;13773;48.868;10.730;2022-08-21T05:12:17;12.70;99.90
25983;DHT22;13773;48.868;10.730;2022-08-21T05:14:43;12.80;99.90
25983;DHT22;13773;48.868;10.730;2022-08-21T05:17:09;12.80;99.90
25983;DHT22;13773;48.868;10.730;2022-08-21T05:19:36;12.80;99.90
25983;DHT22;13773;48.868;10.730;2022-08-21T05:22:02;12.80;99.90
25983;DHT22;13773;48.868;10.730;2022-08-21T05:24:28;12.90;99.90
25983;DHT22;13773;48.868;10.730;2022-08-21T05:26:54;12.90;99.90
25983;DHT22;13773;48.868;10.730;2022-08-21T05:29:20;13.00;99.90
25983;DHT22;13773;48.868;10.730;2022-08-21T05:31:47;13.00;99.90
25983;DHT22;13773;48.868;10.730;2022-08-21T05:34:14;13.10;99.90
25983;DHT22;13773;48.868;10.730;2022-08-21T05:36:43;13.10;99.90
25983;DHT22;13773;48.868;10.730;2022-08-21T05:39:08;13.20;99.90
25983;DHT22;13773;48.868;10.730;2022-08-21T05:41:34;13.20;99.90
25983;DHT22;13773;48.868;10.730;2022-08-21T05:44:00;13.30;99.90
25983;DHT22;13773;48.868;10.730;2022-08-21T05:46:26;13.30;99.90
25983;DHT22;13773;48.868;10.730;2022-08-21T05:48:52;13.30;99.90
25983;DHT22;13773;48.868;10.730;2022-08-21T05:51:17;13.40;99.90
25983;DHT22;13773;48.868;10.730;2022-08-21T05:53:43;13.40;99.90
25983;DHT22;13773;48.868;10.730;2022-08-21T05:56:10;13.50;99.90
25983;DHT22;13773;48.868;10.730;2022-08-21T05:58:37;13.60;99.90
25983;DHT22;13773;48.868;10.730;2022-08-21T06:01:03;13.70;99.90
25983;DHT22;13773;48.868;10.730;2022-08-21T06:03:34;13.70;99.90
25983;DHT22;13773;48.868;10.730;2022-08-21T06:06:02;13.70;99.90
25983;DHT22;13773;48.868;10.730;2022-08-21T06:08:28;13.80;99.90
25983;DHT22;13773;48.868;10.730;2022-08-21T06:10:57;13.80;99.90
25983;DHT22;13773;48.868;10.730;2022-08-21T06:13:23;13.90;99.90
25983;DHT22;13773;48.868;10.730;2022-08-21T06:15:49;13.90;99.90
25983;DHT22;13773;48.868;10.730;2022-08-21T06:18:15;13.90;99.90
25983;DHT22;13773;48.868;10.730;2022-08-21T06:20:42;13.90;99.90
25983;DHT22;13773;48.868;10.730;2022-08-21T06:23:08;14.00;99.90
25983;DHT22;13773;48.868;10.730;2022-08-21T06:25:34;14.10;99.90
25983;DHT22;13773;48.868;10.730;2022-08-21T06:30:27;14.30;99.90
25983;DHT22;13773;48.868;10.730;2022-08-21T06:32:53;14.40;99.90
25983;DHT22;13773;48.868;10.730;2022-08-21T06:35:19;14.60;99.90
25983;DHT22;13773;48.868;10.730;2022-08-21T06:37:45;14.90;99.90
25983;DHT22;13773;48.868;10.730;2022-08-21T06:40:11;15.40;99.90
25983;DHT22;13773;48.868;10.730;2022-08-21T06:42:37;16.00;99.90
25983;DHT22;13773;48.868;10.730;2022-08-21T06:45:04;16.80;99.90
25983;DHT22;13773;48.868;10.730;2022-08-21T06:47:29;17.20;99.90
25983;DHT22;13773;48.868;10.730;2022-08-21T06:49:55;17.50;99.90
25983;DHT22;13773;48.868;10.730;2022-08-21T06:52:21;17.90;99.90
25983;DHT22;13773;48.868;10.730;2022-08-21T06:54:46;18.10;99.90
25983;DHT22;13773;48.868;10.730;2022-08-21T06:57:12;18.20;99.90
25983;DHT22;13773;48.868;10.730;2022-08-21T06:59:38;18.40;99.90
25983;DHT22;13773;48.868;10.730;2022-08-21T07:02:03;18.40;99.90
25983;DHT22;13773;48.868;10.730;2022-08-21T07:04:29;18.20;99.90
25983;DHT22;13773;48.868;10.730;2022-08-21T07:06:55;18.00;99.90
25983;DHT22;13773;48.868;10.730;2022-08-21T07:09:21;17.80;99.90
25983;DHT22;13773;48.868;10.730;2022-08-21T07:11:50;17.60;99.90
25983;DHT22;13773;48.868;10.730;2022-08-21T07:14:17;17.50;99.90
25983;DHT22;13773;48.868;10.730;2022-08-21T07:16:43;17.60;99.90
25983;DHT22;13773;48.868;10.730;2022-08-21T07:19:08;17.60;99.90
25983;DHT22;13773;48.868;10.730;2022-08-21T07:21:34;17.80;99.90
25983;DHT22;13773;48.868;10.730;2022-08-21T07:24:00;18.00;99.90
25983;DHT22;13773;48.868;10.730;2022-08-21T07:26:25;18.20;99.90
25983;DHT22;13773;48.868;10.730;2022-08-21T07:28:52;18.10;99.90
25983;DHT22;13773;48.868;10.730;2022-08-21T07:31:23;17.90;99.90
25983;DHT22;13773;48.868;10.730;2022-08-21T07:33:49;18.00;99.90
25983;DHT22;13773;48.868;10.730;2022-08-21T07:36:15;18.00;99.90
25983;DHT22;13773;48.868;10.730;2022-08-21T07:38:41;18.10;99.90
25983;DHT22;13773;48.868;10.730;2022-08-21T07:41:22;18.10;99.90
25983;DHT22;13773;48.868;10.730;2022-08-21T07:43:50;18.10;99.90
25983;DHT22;13773;48.868;10.730;2022-08-21T07:46:15;18.40;99.90
25983;DHT22;13773;48.868;10.730;2022-08-21T07:48:41;18.50;99.90
25983;DHT22;13773;48.868;10.730;2022-08-21T07:51:11;18.70;99.90
25983;DHT22;13773;48.868;10.730;2022-08-21T07:53:37;18.80;99.90
25983;DHT22;13773;48.868;10.730;2022-08-21T07:56:04;18.90;99.90
25983;DHT22;13773;48.868;10.730;2022-08-21T07:58:31;19.00;99.90
25983;DHT22;13773;48.868;10.730;2022-08-21T08:00:57;19.00;99.90
25983;DHT22;13773;48.868;10.730;2022-08-21T08:03:22;19.10;99.90
25983;DHT22;13773;48.868;10.730;2022-08-21T08:05:49;19.20;99.90
25983;DHT22;13773;48.868;10.730;2022-08-21T08:08:14;19.30;99.90
25983;DHT22;13773;48.868;10.730;2022-08-21T08:10:41;19.00;99.90
25983;DHT22;13773;48.868;10.730;2022-08-21T08:13:07;19.20;99.90
25983;DHT22;13773;48.868;10.730;2022-08-21T08:15:34;19.30;99.90
25983;DHT22;13773;48.868;10.730;2022-08-21T08:17:59;19.50;99.90
25983;DHT22;13773;48.868;10.730;2022-08-21T08:20:26;19.40;99.90
25983;DHT22;13773;48.868;10.730;2022-08-21T08:22:53;19.50;99.90
25983;DHT22;13773;48.868;10.730;2022-08-21T08:25:20;19.30;99.90
25983;DHT22;13773;48.868;10.730;2022-08-21T08:27:46;19.30;99.90
25983;DHT22;13773;48.868;10.730;2022-08-21T08:30:13;19.30;99.90
25983;DHT22;13773;48.868;10.730;2022-08-21T08:32:40;19.50;99.90
25983;DHT22;13773;48.868;10.730;2022-08-21T08:35:06;19.70;99.90
25983;DHT22;13773;48.868;10.730;2022-08-21T08:37:33;19.90;99.90
25983;DHT22;13773;48.868;10.730;2022-08-21T08:39:59;19.80;99.90
25983;DHT22;13773;48.868;10.730;2022-08-21T08:42:34;20.00;99.90
25983;DHT22;13773;48.868;10.730;2022-08-21T08:47:36;20.40;99.90
25983;DHT22;13773;48.868;10.730;2022-08-21T08:50:25;20.30;99.90
25983;DHT22;13773;48.868;10.730;2022-08-21T08:53:06;20.30;99.90
25983;DHT22;13773;48.868;10.730;2022-08-21T08:55:40;20.30;99.90
25983;DHT22;13773;48.868;10.730;2022-08-21T08:58:09;20.30;99.90
25983;DHT22;13773;48.868;10.730;2022-08-21T09:00:41;20.30;99.90
25983;DHT22;13773;48.868;10.730;2022-08-21T09:03:06;20.70;99.90
25983;DHT22;13773;48.868;10.730;2022-08-21T09:11:02;20.80;99.90
25983;DHT22;13773;48.868;10.730;2022-08-21T09:13:55;21.10;99.90
25983;DHT22;13773;48.868;10.730;2022-08-21T09:19:59;20.90;99.90
25983;DHT22;13773;48.868;10.730;2022-08-21T09:22:43;21.00;99.90
25983;DHT22;13773;48.868;10.730;2022-08-21T09:25:27;21.00;99.90
25983;DHT22;13773;48.868;10.730;2022-08-21T09:27:54;21.30;99.90
25983;DHT22;13773;48.868;10.730;2022-08-21T09:30:26;21.30;99.90
25983;DHT22;13773;48.868;10.730;2022-08-21T09:32:51;21.40;99.90
25983;DHT22;13773;48.868;10.730;2022-08-21T09:35:20;21.50;99.90
25983;DHT22;13773;48.868;10.730;2022-08-21T09:40:41;21.60;99.90
25983;DHT22;13773;48.868;10.730;2022-08-21T09:43:23;21.70;99.90
25983;DHT22;13773;48.868;10.730;2022-08-21T09:46:09;21.80;99.90
25983;DHT22;13773;48.868;10.730;2022-08-21T09:48:50;21.70;99.90
25983;DHT22;13773;48.868;10.730;2022-08-21T09:51:20;21.50;99.90
25983;DHT22;13773;48.868;10.730;2022-08-21T09:54:12;21.40;99.90
25983;DHT22;13773;48.868;10.730;2022-08-21T09:56:55;21.60;99.90
25983;DHT22;13773;48.868;10.730;2022-08-21T09:59:39;21.80;99.90
25983;DHT22;13773;48.868;10.730;2022-08-21T10:02:26;22.10;99.90
25983;DHT22;13773;48.868;10.730;2022-08-21T10:04:57;22.00;99.90
25983;DHT22;13773;48.868;10.730;2022-08-21T10:07:26;22.10;99.90
25983;DHT22;13773;48.868;10.730;2022-08-21T10:10:07;22.30;99.90
25983;DHT22;13773;48.868;10.730;2022-08-21T10:12:43;22.70;99.90
25983;DHT22;13773;48.868;10.730;2022-08-21T10:18:26;22.50;99.90
25983;DHT22;13773;48.868;10.730;2022-08-21T10:21:08;22.40;99.90
25983;DHT22;13773;48.868;10.730;2022-08-21T10:23:49;22.50;99.90
25983;DHT22;13773;48.868;10.730;2022-08-21T10:32:13;22.70;99.90
25983;DHT22;13773;48.868;10.730;2022-08-21T10:48:57;22.90;99.90
25983;DHT22;13773;48.868;10.730;2022-08-21T10:54:35;23.00;99.90
25983;DHT22;13773;48.868;10.730;2022-08-21T10:57:19;22.90;99.90
25983;DHT22;13773;48.868;10.730;2022-08-21T10:59:57;23.10;99.90
25983;DHT22;13773;48.868;10.730;2022-08-21T11:02:32;23.60;99.90
25983;DHT22;13773;48.868;10.730;2022-08-21T11:05:09;23.40;99.90
25983;DHT22;13773;48.868;10.730;2022-08-21T11:15:56;23.20;99.90
25983;DHT22;13773;48.868;10.730;2022-08-21T11:18:31;23.30;99.90
25983;DHT22;13773;48.868;10.730;2022-08-21T11:24:27;23.60;99.90
25983;DHT22;13773;48.868;10.730;2022-08-21T11:27:05;23.80;99.90
25983;DHT22;13773;48.868;10.730;2022-08-21T11:29:35;24.00;99.90
25983;DHT22;13773;48.868;10.730;2022-08-21T11:42:39;24.30;99.90
25983;DHT22;13773;48.868;10.730;2022-08-21T11:45:19;24.30;99.90
25983;DHT22;13773;48.868;10.730;2022-08-21T11:50:28;24.00;99.90
25983;DHT22;13773;48.868;10.730;2022-08-21T11:53:02;23.70;99.90
25983;DHT22;13773;48.868;10.730;2022-08-21T11:58:35;24.10;99.90
25983;DHT22;13773;48.868;10.730;2022-08-21T12:01:10;24.30;99.90
25983;DHT22;13773;48.868;10.730;2022-08-21T12:03:41;24.30;99.90
25983;DHT22;13773;48.868;10.730;2022-08-21T12:06:13;23.70;99.90
25983;DHT22;13773;48.868;10.730;2022-08-21T12:08:44;23.10;99.90
25983;DHT22;13773;48.868;10.730;2022-08-21T12:16:39;23.70;99.20
25983;DHT22;13773;48.868;10.730;2022-08-21T12:21:54;24.00;99.50
25983;DHT22;13773;48.868;10.730;2022-08-21T12:27:30;24.30;99.00
25983;DHT22;13773;48.868;10.730;2022-08-21T12:30:19;24.40;99.80
25983;DHT22;13773;48.868;10.730;2022-08-21T12:32:55;24.60;99.40
25983;DHT22;13773;48.868;10.730;2022-08-21T12:35:25;24.70;99.00
25983;DHT22;13773;48.868;10.730;2022-08-21T12:38:26;24.50;97.60
25983;DHT22;13773;48.868;10.730;2022-08-21T12:41:05;24.50;97.60
25983;DHT22;13773;48.868;10.730;2022-08-21T12:43:37;24.40;96.40
25983;DHT22;13773;48.868;10.730;2022-08-21T12:46:04;24.30;99.10
25983;DHT22;13773;48.868;10.730;2022-08-21T12:48:45;24.30;97.80
25983;DHT22;13773;48.868;10.730;2022-08-21T12:52:02;24.30;97.30
25983;DHT22;13773;48.868;10.730;2022-08-21T12:54:02;24.40;97.30
25983;DHT22;13773;48.868;10.730;2022-08-21T12:56:32;24.90;96.50
25983;DHT22;13773;48.868;10.730;2022-08-21T12:59:05;25.20;97.40
25983;DHT22;13773;48.868;10.730;2022-08-21T13:01:35;25.40;97.30
25983;DHT22;13773;48.868;10.730;2022-08-21T13:04:08;25.70;97.70
25983;DHT22;13773;48.868;10.730;2022-08-21T13:06:42;25.90;97.20
25983;DHT22;13773;48.868;10.730;2022-08-21T13:09:12;25.50;96.80
25983;DHT22;13773;48.868;10.730;2022-08-21T13:11:40;25.30;95.70
25983;DHT22;13773;48.868;10.730;2022-08-21T13:14:33;25.00;94.70
25983;DHT22;13773;48.868;10.730;2022-08-21T13:16:58;24.50;96.30
25983;DHT22;13773;48.868;10.730;2022-08-21T13:19:25;24.90;95.70
25983;DHT22;13773;48.868;10.730;2022-08-21T13:21:52;24.70;95.10
25983;DHT22;13773;48.868;10.730;2022-08-21T13:24:19;24.80;96.40
25983;DHT22;13773;48.868;10.730;2022-08-21T13:26:46;25.10;97.40
25983;DHT22;13773;48.868;10.730;2022-08-21T13:29:15;25.40;95.50
25983;DHT22;13773;48.868;10.730;2022-08-21T13:31:47;25.10;94.20
25983;DHT22;13773;48.868;10.730;2022-08-21T13:34:14;24.70;94.00
25983;DHT22;13773;48.868;10.730;2022-08-21T13:36:42;24.80;94.90
25983;DHT22;13773;48.868;10.730;2022-08-21T13:39:10;25.00;94.90
25983;DHT22;13773;48.868;10.730;2022-08-21T13:41:39;25.10;94.40
25983;DHT22;13773;48.868;10.730;2022-08-21T13:46:44;25.20;93.60
25983;DHT22;13773;48.868;10.730;2022-08-21T13:49:13;25.00;93.40
25983;DHT22;13773;48.868;10.730;2022-08-21T13:51:40;24.80;94.90
25983;DHT22;13773;48.868;10.730;2022-08-21T13:54:27;24.90;93.20
25983;DHT22;13773;48.868;10.730;2022-08-21T13:56:55;25.20;94.70
25983;DHT22;13773;48.868;10.730;2022-08-21T13:59:35;25.60;95.30
25983;DHT22;13773;48.868;10.730;2022-08-21T14:02:08;25.80;95.00
25983;DHT22;13773;48.868;10.730;2022-08-21T14:04:39;25.90;94.80
25983;DHT22;13773;48.868;10.730;2022-08-21T14:07:18;25.50;93.80
25983;DHT22;13773;48.868;10.730;2022-08-21T14:09:45;25.50;94.10
25983;DHT22;13773;48.868;10.730;2022-08-21T14:12:24;25.60;94.10
25983;DHT22;13773;48.868;10.730;2022-08-21T14:14:51;25.70;94.10
25983;DHT22;13773;48.868;10.730;2022-08-21T14:17:36;25.90;93.50
25983;DHT22;13773;48.868;10.730;2022-08-21T14:20:04;25.90;91.50
25983;DHT22;13773;48.868;10.730;2022-08-21T14:25:26;26.00;92.90
25983;DHT22;13773;48.868;10.730;2022-08-21T14:27:57;26.00;92.30
25983;DHT22;13773;48.868;10.730;2022-08-21T14:30:34;25.90;91.90
25983;DHT22;13773;48.868;10.730;2022-08-21T14:33:02;25.90;91.70
25983;DHT22;13773;48.868;10.730;2022-08-21T14:35:28;25.70;91.10
25983;DHT22;13773;48.868;10.730;2022-08-21T14:37:54;25.60;91.40
25983;DHT22;13773;48.868;10.730;2022-08-21T14:40:22;25.40;90.50
25983;DHT22;13773;48.868;10.730;2022-08-21T14:42:48;25.20;90.60
25983;DHT22;13773;48.868;10.730;2022-08-21T14:45:26;25.20;90.20
25983;DHT22;13773;48.868;10.730;2022-08-21T14:47:53;25.20;90.10
25983;DHT22;13773;48.868;10.730;2022-08-21T14:50:19;25.30;92.10
25983;DHT22;13773;48.868;10.730;2022-08-21T14:52:45;25.30;89.60
25983;DHT22;13773;48.868;10.730;2022-08-21T14:55:14;25.30;87.70
25983;DHT22;13773;48.868;10.730;2022-08-21T14:57:47;25.20;88.50
25983;DHT22;13773;48.868;10.730;2022-08-21T15:00:16;25.30;90.30
25983;DHT22;13773;48.868;10.730;2022-08-21T15:02:42;25.50;90.70
25983;DHT22;13773;48.868;10.730;2022-08-21T15:05:08;25.50;90.70
25983;DHT22;13773;48.868;10.730;2022-08-21T15:07:34;25.40;90.60
25983;DHT22;13773;48.868;10.730;2022-08-21T15:10:00;25.40;90.60
25983;DHT22;13773;48.868;10.730;2022-08-21T15:12:26;25.40;90.30
25983;DHT22;13773;48.868;10.730;2022-08-21T15:14:51;25.60;90.70
25983;DHT22;13773;48.868;10.730;2022-08-21T15:17:18;25.80;91.50
25983;DHT22;13773;48.868;10.730;2022-08-21T15:19:44;25.70;90.40
25983;DHT22;13773;48.868;10.730;2022-08-21T15:22:09;25.60;91.40
25983;DHT22;13773;48.868;10.730;2022-08-21T15:24:35;25.70;91.70
25983;DHT22;13773;48.868;10.730;2022-08-21T15:27:03;25.60;91.60
25983;DHT22;13773;48.868;10.730;2022-08-21T15:29:30;25.40;91.10
25983;DHT22;13773;48.868;10.730;2022-08-21T15:34:42;25.40;91.20
25983;DHT22;13773;48.868;10.730;2022-08-21T15:37:08;25.40;91.10
25983;DHT22;13773;48.868;10.730;2022-08-21T15:39:35;25.50;91.00
25983;DHT22;13773;48.868;10.730;2022-08-21T15:42:01;25.50;91.10
25983;DHT22;13773;48.868;10.730;2022-08-21T15:44:28;25.50;91.10
25983;DHT22;13773;48.868;10.730;2022-08-21T15:46:55;25.60;92.00
25983;DHT22;13773;48.868;10.730;2022-08-21T15:49:21;25.60;92.40
25983;DHT22;13773;48.868;10.730;2022-08-21T15:51:47;25.50;92.30
25983;DHT22;13773;48.868;10.730;2022-08-21T15:54:13;25.50;92.00
25983;DHT22;13773;48.868;10.730;2022-08-21T15:56:40;25.40;92.00
25983;DHT22;13773;48.868;10.730;2022-08-21T15:59:12;25.40;93.10
25983;DHT22;13773;48.868;10.730;2022-08-21T16:01:38;25.20;92.00
25983;DHT22;13773;48.868;10.730;2022-08-21T16:04:05;25.10;92.10
25983;DHT22;13773;48.868;10.730;2022-08-21T16:06:32;25.10;92.70
25983;DHT22;13773;48.868;10.730;2022-08-21T16:08:58;24.90;91.70
25983;DHT22;13773;48.868;10.730;2022-08-21T16:11:25;24.90;91.70
25983;DHT22;13773;48.868;10.730;2022-08-21T16:13:51;24.90;91.50
25983;DHT22;13773;48.868;10.730;2022-08-21T16:16:20;24.80;91.30
25983;DHT22;13773;48.868;10.730;2022-08-21T16:18:47;25.00;92.10
25983;DHT22;13773;48.868;10.730;2022-08-21T16:21:13;25.00;92.60
25983;DHT22;13773;48.868;10.730;2022-08-21T16:23:40;25.10;91.90
25983;DHT22;13773;48.868;10.730;2022-08-21T16:26:07;24.90;91.70
25983;DHT22;13773;48.868;10.730;2022-08-21T16:28:35;25.00;92.30
25983;DHT22;13773;48.868;10.730;2022-08-21T16:31:01;25.00;91.80
25983;DHT22;13773;48.868;10.730;2022-08-21T16:33:34;24.80;91.80
25983;DHT22;13773;48.868;10.730;2022-08-21T16:36:00;24.80;91.90
25983;DHT22;13773;48.868;10.730;2022-08-21T16:38:27;24.70;92.50
25983;DHT22;13773;48.868;10.730;2022-08-21T16:40:53;24.60;91.70
25983;DHT22;13773;48.868;10.730;2022-08-21T16:43:24;24.50;92.10
25983;DHT22;13773;48.868;10.730;2022-08-21T16:45:51;24.40;92.10
25983;DHT22;13773;48.868;10.730;2022-08-21T16:48:17;24.40;92.10
25983;DHT22;13773;48.868;10.730;2022-08-21T16:50:43;24.40;91.80
25983;DHT22;13773;48.868;10.730;2022-08-21T16:53:09;24.40;92.60
25983;DHT22;13773;48.868;10.730;2022-08-21T16:55:36;24.40;92.40
25983;DHT22;13773;48.868;10.730;2022-08-21T16:58:22;24.50;92.40
25983;DHT22;13773;48.868;10.730;2022-08-21T17:00:48;24.50;92.50